Toernooibase
HOME | LAST IN DATABASE | RATINGS | TOURNAMENTS | NEWS | GAMES | POSITIONS | LINKS |

Player: 
 Hein Meijer 
Age:
 58
Rating on 1-7-2018: 
 1440
Highest rating ever:
 1507
Average rating all time:
 1453
     .
DateTournamentOpponentRatGaPtR.diff.N.percN.pts
sa 21-07-2018  Heerhugowaard Open SNA Heerhugowaard  Boudewijn van der Veen  1015 1-2425 0.93 1.86
su 22-07-2018  Heerhugowaard Open SNA Heerhugowaard  Hans Tangelder  1119 1-2321 0.87 1.74
mo 23-07-2018  Heerhugowaard Open SNA Heerhugowaard  Theo Tesselaar  1203 1-1237 0.8 1.59
tu 24-07-2018  Heerhugowaard Open SNA Heerhugowaard  Alexander Shvartsman  1588 1-1-148 0.3 0.6
tu 24-07-2018  Heerhugowaard Open SNA Heerhugowaard  Christian Niami  1447 1-1-7 0.49 0.98
we 25-07-2018  Heerhugowaard Open SNA Heerhugowaard  Ruud Groot  1119 1-2321 0.87 1.74
th 26-07-2018  Heerhugowaard Open SNA Heerhugowaard  Bassirou Ba  1460 1-1-20 0.47 0.94
fr 27-07-2018  Heerhugowaard Open SNA Heerhugowaard  Thomy Lucien Mbongo  1452 1-1-12 0.48 0.97
sa 28-07-2018  Heerhugowaard Open SNA Heerhugowaard  Alexander Verkhovykh  1358 1-182 0.61 1.23
su 19-08-2018  Polish Open Szczyrk Buitenland  Daan van Os  1059 1-2381 0.91 1.82
tu 21-08-2018  Polish Open Szczyrk Buitenland  Egor Bobkov  1252 1-2188 0.74 1.49
tu 21-08-2018  Polish Open Szczyrk Buitenland  Christian Niami  1447 1-1-7 0.49 0.98
we 22-08-2018  Polish Open Szczyrk Buitenland  Yuriy Anikeev  1506 1-1-66 0.41 0.82
th 23-08-2018  Polish Open Szczyrk Buitenland  Alexander Baliakin  1560 1-1-120 0.34 0.67
th 23-08-2018  Polish Open Szczyrk Buitenland  Guntis Valneris  1542 1-1-102 0.36 0.72
fr 24-08-2018  Polish Open Szczyrk Buitenland  Evgeni Vatutin  1463 1-1-23 0.47 0.94
sa 25-08-2018  Polish Open Szczyrk Buitenland  Ron Heusdens  1499 1-1-59 0.42 0.84
sa 15-09-2018  Dutch Teamcompetition KNDB  Bart Terwel  1364 1-176 0.6 1.21
mo 17-09-2018  Turkish Open Izmir Buitenland  Artem Ivanov  1512 1-1-72 0.4 0.8
mo 17-09-2018  Turkish Open Izmir Buitenland  Ivan Trofimov  1474 1-0-34 0.45 0.9
we 19-09-2018  Turkish Open Izmir Buitenland  Lukasz Kosobudzki  1267 1-1173 0.73 1.46
th 20-09-2018  Turkish Open Izmir Buitenland  Ron Heusdens  1499 1-0-59 0.42 0.84
fr 21-09-2018  Turkish Open Izmir Buitenland  Murodullo Amrillaev  1491 1-1-51 0.43 0.86
sa 29-09-2018  Dutch Teamcompetition KNDB  Zainal Palmans  1366 1-174 0.6 1.2
sa 13-10-2018  Dutch Teamcompetition KNDB  Berke Yiğittürk  1149 1-2291 0.85 1.69
we 17-10-2018  Amersfoort Open ADG Amersfoort  Jan van de Veen  1152 1-2288 0.84 1.69
we 17-10-2018  Amersfoort Open ADG Amersfoort  Mari van Ballegooijen  1287 1-2153 0.7 1.41
th 18-10-2018  Amersfoort Open ADG Amersfoort  Losseni Savané  1268 1-2172 0.73 1.45
th 18-10-2018  Amersfoort Open ADG Amersfoort  Peter van der Stap  1336 1-2104 0.64 1.28
fr 19-10-2018  Amersfoort Open ADG Amersfoort  Anton van Berkel  1402 1-138 0.55 1.11
fr 19-10-2018  Amersfoort Open ADG Amersfoort  Thomy Lucien Mbongo  1452 1-1-12 0.48 0.97
sa 20-10-2018  Amersfoort Open ADG Amersfoort  Alexander Shvartsman  1588 1-1-148 0.3 0.6
sa 27-10-2018  Dutch Teamcompetition KNDB  Thijs van den Broek  1326 1-1114 0.66 1.31
sa 10-11-2018  Dutch Teamcompetition KNDB  Erik Hoogendoorn  1268 1-1172 0.73 1.45
sa 24-11-2018  Dutch Teamcompetition KNDB  Ronald van de Beek  1204 1-2236 0.8 1.59
sa 08-12-2018  Dutch Teamcompetition KNDB  Johan Sterrenburg  1392 1-148 0.57 1.13
sa 05-01-2019  Dutch Teamcompetition KNDB  Joost Hendriksen  1337 1-2103 0.64 1.28
sa 12-01-2019  Semi finals Championship of KNDB  Waldo Aliar  1312 1-2128 0.67 1.35
sa 12-01-2019  Semi finals Championship of KNDB  Han Seinhorst  1232 1-2208 0.77 1.53
sa 19-01-2019  Dutch Teamcompetition KNDB  Evgeni Vatutin  1463 1-1-23 0.47 0.94
sa 26-01-2019  Semi finals Championship of KNDB  Casper Remeijer  1378 1-162 0.59 1.17
sa 26-01-2019  Semi finals Championship of KNDB  Jan Lammers  1173 1-2267 0.82 1.65
sa 02-02-2019  Dutch Teamcompetition KNDB  Ivan Trofimov  1474 1-1-34 0.45 0.9
sa 09-02-2019  Semi finals Championship of KNDB  Ben Provoost  1439 1-11 0.5 1
sa 09-02-2019  Semi finals Championship of KNDB  Steven den Hollander  1277 1-1163 0.72 1.43
sa 16-02-2019  Dutch Teamcompetition KNDB  Jan van Dijk  1426 1-014 0.52 1.04
sa 23-02-2019  Semi finals Championship of KNDB  Frank Teer  1339 1-1101 0.64 1.28
fr 05-04-2019  Dutch Championship KNDB  Niek Kuijvenhoven  1370 1-170 0.6 1.19
sa 06-04-2019  Dutch Championship KNDB  Wouter Sipma  1461 1-1-21 0.47 0.94
sa 06-04-2019  Dutch Championship KNDB  Jan Groenendijk  1527 1-1-87 0.38 0.76
su 07-04-2019  Dutch Championship KNDB  Anton van Berkel  1402 1-138 0.55 1.11
mo 08-04-2019  Dutch Championship KNDB  Casper Remeijer  1378 1-162 0.59 1.17
tu 09-04-2019  Dutch Championship KNDB  Ron Heusdens  1499 1-1-59 0.42 0.84
we 10-04-2019  Dutch Championship KNDB  Alexander Baliakin  1560 1-0-120 0.34 0.67
we 10-04-2019  Dutch Championship KNDB  Rob Geurtsen  1302 1-1138 0.69 1.37
th 11-04-2019  Dutch Championship KNDB  Martijn van IJzendoorn  1534 1-1-94 0.37 0.74
fr 12-04-2019  Dutch Championship KNDB  Wim Kalis  1365 1-175 0.6 1.21
sa 13-04-2019  Dutch Championship KNDB  Jos Stokkel  1425 1-115 0.52 1.04
tu 28-05-2019  Salou Open Buitenland  Kees Romijn  1236 1-2204 0.76 1.52
tu 28-05-2019  Salou Open Buitenland  Anton Kosior  1309 1-1131 0.68 1.35
we 29-05-2019  Salou Open Buitenland  Taeke Kooistra  1242 1-1198 0.76 1.51
sa 01-06-2019  Salou Open Buitenland  Bhiem Ramdien  1372 1-168 0.59 1.19
su 02-06-2019  Salou Open Buitenland  Michel Stempher  1372 1-068 0.59 1.19
su 09-06-2019  Golden Prague Buitenland  Petra Duskova  1043 1-2397 0.92 1.84
mo 10-06-2019  Golden Prague Buitenland  Gijs Schoenmakers  1239 1-1201 0.76 1.52
tu 11-06-2019  Golden Prague Buitenland  Erwin Heslinga  1271 1-1169 0.72 1.45
we 12-06-2019  Golden Prague Buitenland  IJsbrand Haven  1216 1-1224 0.78 1.57
th 13-06-2019  Golden Prague Buitenland  Roberts Misans  1494 1-1-54 0.43 0.85
fr 14-06-2019  Golden Prague Buitenland  Bas Messemaker  1403 1-137 0.55 1.1
sa 15-06-2019  Golden Prague Buitenland  Kees Romijn  1236 1-1204 0.76 1.52
 Total:70-8284.11
 Correctionfactor:5 (1149 g.)
 Calculation:82-84.11 x5=-10.57
 Virtual rating: 1429
 Aver.rating: 1357 Perc.:0.59Diff.: 62
 TPR: 1357 +62 1419
* official KNDB-rating can be not the same as virtual rating because of new iRp-check